sensor_id;sensor_type;location;lat;lon;timestamp;P1;durP1;ratioP1;P2;durP2;ratioP2
7338;SDS011;33747;49.524;8.390;2023-05-07T00:00:58;3.35;;;2.25;;
7338;SDS011;33747;49.524;8.390;2023-05-07T00:03:24;2.38;;;2.10;;
7338;SDS011;33747;49.524;8.390;2023-05-07T00:05:51;8.18;;;2.63;;
7338;SDS011;33747;49.524;8.390;2023-05-07T00:08:17;4.43;;;1.80;;
7338;SDS011;33747;49.524;8.390;2023-05-07T00:10:43;2.45;;;2.13;;
7338;SDS011;33747;49.524;8.390;2023-05-07T00:13:08;5.05;;;2.55;;
7338;SDS011;33747;49.524;8.390;2023-05-07T00:15:34;4.82;;;2.22;;
7338;SDS011;33747;49.524;8.390;2023-05-07T00:17:59;4.03;;;2.67;;
7338;SDS011;33747;49.524;8.390;2023-05-07T00:20:25;5.97;;;2.25;;
7338;SDS011;33747;49.524;8.390;2023-05-07T00:22:50;8.65;;;2.25;;
7338;SDS011;33747;49.524;8.390;2023-05-07T00:25:15;3.28;;;2.22;;
7338;SDS011;33747;49.524;8.390;2023-05-07T00:27:41;6.15;;;2.45;;
7338;SDS011;33747;49.524;8.390;2023-05-07T00:30:06;7.78;;;2.00;;
7338;SDS011;33747;49.524;8.390;2023-05-07T00:32:32;3.38;;;2.30;;
7338;SDS011;33747;49.524;8.390;2023-05-07T00:34:57;5.53;;;2.92;;
7338;SDS011;33747;49.524;8.390;2023-05-07T00:37:23;7.03;;;2.90;;
7338;SDS011;33747;49.524;8.390;2023-05-07T00:39:48;4.05;;;2.80;;
7338;SDS011;33747;49.524;8.390;2023-05-07T00:42:14;4.15;;;2.67;;
7338;SDS011;33747;49.524;8.390;2023-05-07T00:44:41;2.53;;;2.30;;
7338;SDS011;33747;49.524;8.390;2023-05-07T00:47:06;4.57;;;2.53;;
7338;SDS011;33747;49.524;8.390;2023-05-07T00:49:37;4.30;;;2.58;;
7338;SDS011;33747;49.524;8.390;2023-05-07T00:52:05;3.83;;;2.30;;
7338;SDS011;33747;49.524;8.390;2023-05-07T00:54:31;2.97;;;1.70;;
7338;SDS011;33747;49.524;8.390;2023-05-07T00:56:57;4.80;;;2.00;;
7338;SDS011;33747;49.524;8.390;2023-05-07T00:59:23;5.18;;;2.17;;
7338;SDS011;33747;49.524;8.390;2023-05-07T01:01:48;5.35;;;2.38;;
7338;SDS011;33747;49.524;8.390;2023-05-07T01:04:13;7.32;;;2.65;;
7338;SDS011;33747;49.524;8.390;2023-05-07T01:06:39;2.92;;;2.20;;
7338;SDS011;33747;49.524;8.390;2023-05-07T01:09:05;1.90;;;1.80;;
7338;SDS011;33747;49.524;8.390;2023-05-07T01:11:31;4.75;;;2.33;;
7338;SDS011;33747;49.524;8.390;2023-05-07T01:13:56;3.55;;;2.20;;
7338;SDS011;33747;49.524;8.390;2023-05-07T01:16:23;4.68;;;2.28;;
7338;SDS011;33747;49.524;8.390;2023-05-07T01:18:49;4.22;;;2.63;;
7338;SDS011;33747;49.524;8.390;2023-05-07T01:21:15;3.35;;;2.38;;
7338;SDS011;33747;49.524;8.390;2023-05-07T01:23:42;4.70;;;2.08;;
7338;SDS011;33747;49.524;8.390;2023-05-07T01:26:09;5.10;;;2.60;;
7338;SDS011;33747;49.524;8.390;2023-05-07T01:28:34;5.43;;;2.35;;
7338;SDS011;33747;49.524;8.390;2023-05-07T01:31:00;2.55;;;2.10;;
7338;SDS011;33747;49.524;8.390;2023-05-07T01:33:27;5.72;;;2.30;;
7338;SDS011;33747;49.524;8.390;2023-05-07T01:35:56;6.53;;;2.28;;
7338;SDS011;33747;49.524;8.390;2023-05-07T01:38:23;4.72;;;2.55;;
7338;SDS011;33747;49.524;8.390;2023-05-07T01:40:48;5.03;;;2.35;;
7338;SDS011;33747;49.524;8.390;2023-05-07T01:43:14;7.38;;;2.25;;
7338;SDS011;33747;49.524;8.390;2023-05-07T01:45:40;3.40;;;2.20;;
7338;SDS011;33747;49.524;8.390;2023-05-07T01:48:05;3.95;;;2.30;;
7338;SDS011;33747;49.524;8.390;2023-05-07T01:50:31;3.03;;;2.20;;
7338;SDS011;33747;49.524;8.390;2023-05-07T01:52:57;9.10;;;2.67;;
7338;SDS011;33747;49.524;8.390;2023-05-07T01:55:22;5.35;;;2.25;;
7338;SDS011;33747;49.524;8.390;2023-05-07T01:57:48;3.20;;;2.58;;
7338;SDS011;33747;49.524;8.390;2023-05-07T02:00:14;3.78;;;2.78;;
7338;SDS011;33747;49.524;8.390;2023-05-07T02:02:39;4.05;;;2.38;;
7338;SDS011;33747;49.524;8.390;2023-05-07T02:05:05;6.10;;;2.97;;
7338;SDS011;33747;49.524;8.390;2023-05-07T02:07:30;3.13;;;2.35;;
7338;SDS011;33747;49.524;8.390;2023-05-07T02:09:56;5.07;;;2.55;;
7338;SDS011;33747;49.524;8.390;2023-05-07T02:12:21;4.15;;;2.40;;
7338;SDS011;33747;49.524;8.390;2023-05-07T02:14:47;3.58;;;2.30;;
7338;SDS011;33747;49.524;8.390;2023-05-07T02:17:13;3.92;;;3.10;;
7338;SDS011;33747;49.524;8.390;2023-05-07T02:19:38;4.05;;;2.80;;
7338;SDS011;33747;49.524;8.390;2023-05-07T02:22:03;4.75;;;2.47;;
7338;SDS011;33747;49.524;8.390;2023-05-07T02:24:29;12.88;;;2.92;;
7338;SDS011;33747;49.524;8.390;2023-05-07T02:26:55;5.85;;;3.03;;
7338;SDS011;33747;49.524;8.390;2023-05-07T02:29:20;4.00;;;2.50;;
7338;SDS011;33747;49.524;8.390;2023-05-07T02:31:45;4.78;;;2.78;;
7338;SDS011;33747;49.524;8.390;2023-05-07T02:34:12;2.63;;;2.42;;
7338;SDS011;33747;49.524;8.390;2023-05-07T02:36:37;7.45;;;2.88;;
7338;SDS011;33747;49.524;8.390;2023-05-07T02:39:03;4.20;;;2.83;;
7338;SDS011;33747;49.524;8.390;2023-05-07T02:41:28;4.68;;;2.55;;
7338;SDS011;33747;49.524;8.390;2023-05-07T02:43:53;4.28;;;2.80;;
7338;SDS011;33747;49.524;8.390;2023-05-07T02:46:19;2.65;;;2.45;;
7338;SDS011;33747;49.524;8.390;2023-05-07T02:48:44;5.82;;;2.55;;
7338;SDS011;33747;49.524;8.390;2023-05-07T02:51:10;4.40;;;2.70;;
7338;SDS011;33747;49.524;8.390;2023-05-07T02:53:35;2.72;;;2.20;;
7338;SDS011;33747;49.524;8.390;2023-05-07T02:56:01;4.78;;;2.40;;
7338;SDS011;33747;49.524;8.390;2023-05-07T02:58:26;3.50;;;2.53;;
7338;SDS011;33747;49.524;8.390;2023-05-07T03:00:52;8.35;;;3.15;;
7338;SDS011;33747;49.524;8.390;2023-05-07T03:03:19;5.15;;;3.03;;
7338;SDS011;33747;49.524;8.390;2023-05-07T03:05:44;3.08;;;2.60;;
7338;SDS011;33747;49.524;8.390;2023-05-07T03:08:10;5.75;;;2.70;;
7338;SDS011;33747;49.524;8.390;2023-05-07T03:10:36;5.90;;;3.00;;
7338;SDS011;33747;49.524;8.390;2023-05-07T03:13:02;2.50;;;2.28;;
7338;SDS011;33747;49.524;8.390;2023-05-07T03:15:27;3.40;;;2.75;;
7338;SDS011;33747;49.524;8.390;2023-05-07T03:17:53;2.85;;;2.65;;
7338;SDS011;33747;49.524;8.390;2023-05-07T03:20:18;3.63;;;2.70;;
7338;SDS011;33747;49.524;8.390;2023-05-07T03:22:43;13.93;;;3.55;;
7338;SDS011;33747;49.524;8.390;2023-05-07T03:25:09;7.10;;;2.58;;
7338;SDS011;33747;49.524;8.390;2023-05-07T03:27:35;5.60;;;3.40;;
7338;SDS011;33747;49.524;8.390;2023-05-07T03:30:00;3.80;;;2.58;;
7338;SDS011;33747;49.524;8.390;2023-05-07T03:32:25;4.22;;;2.90;;
7338;SDS011;33747;49.524;8.390;2023-05-07T03:34:51;5.57;;;2.90;;
7338;SDS011;33747;49.524;8.390;2023-05-07T03:37:16;3.28;;;2.90;;
7338;SDS011;33747;49.524;8.390;2023-05-07T03:39:42;4.65;;;3.17;;
7338;SDS011;33747;49.524;8.390;2023-05-07T03:42:07;6.03;;;3.03;;
7338;SDS011;33747;49.524;8.390;2023-05-07T03:44:32;3.22;;;2.88;;
7338;SDS011;33747;49.524;8.390;2023-05-07T03:46:58;4.03;;;3.08;;
7338;SDS011;33747;49.524;8.390;2023-05-07T03:49:23;4.47;;;2.78;;
7338;SDS011;33747;49.524;8.390;2023-05-07T03:51:48;4.22;;;2.65;;
7338;SDS011;33747;49.524;8.390;2023-05-07T03:54:14;3.30;;;3.03;;
7338;SDS011;33747;49.524;8.390;2023-05-07T03:56:39;3.00;;;2.65;;
7338;SDS011;33747;49.524;8.390;2023-05-07T03:59:05;3.60;;;3.30;;
7338;SDS011;33747;49.524;8.390;2023-05-07T04:01:30;6.47;;;2.58;;
7338;SDS011;33747;49.524;8.390;2023-05-07T04:03:56;4.30;;;2.75;;
7338;SDS011;33747;49.524;8.390;2023-05-07T04:06:21;3.92;;;3.17;;
7338;SDS011;33747;49.524;8.390;2023-05-07T04:08:47;6.63;;;2.67;;
7338;SDS011;33747;49.524;8.390;2023-05-07T04:11:12;4.25;;;2.83;;
7338;SDS011;33747;49.524;8.390;2023-05-07T04:13:37;5.68;;;3.30;;
7338;SDS011;33747;49.524;8.390;2023-05-07T04:16:03;5.65;;;3.00;;
7338;SDS011;33747;49.524;8.390;2023-05-07T04:18:29;4.85;;;2.75;;
7338;SDS011;33747;49.524;8.390;2023-05-07T04:20:55;4.35;;;3.08;;
7338;SDS011;33747;49.524;8.390;2023-05-07T04:23:20;3.88;;;3.25;;
7338;SDS011;33747;49.524;8.390;2023-05-07T04:25:45;4.85;;;2.70;;
7338;SDS011;33747;49.524;8.390;2023-05-07T04:28:11;4.00;;;2.97;;
7338;SDS011;33747;49.524;8.390;2023-05-07T04:30:37;5.72;;;3.75;;
7338;SDS011;33747;49.524;8.390;2023-05-07T04:33:02;3.60;;;3.30;;
7338;SDS011;33747;49.524;8.390;2023-05-07T04:35:28;6.68;;;3.30;;
7338;SDS011;33747;49.524;8.390;2023-05-07T04:37:53;5.63;;;2.97;;
7338;SDS011;33747;49.524;8.390;2023-05-07T04:40:19;3.55;;;3.00;;
7338;SDS011;33747;49.524;8.390;2023-05-07T04:42:44;4.07;;;3.03;;
7338;SDS011;33747;49.524;8.390;2023-05-07T04:45:10;4.25;;;2.97;;
7338;SDS011;33747;49.524;8.390;2023-05-07T04:47:35;5.18;;;2.83;;
7338;SDS011;33747;49.524;8.390;2023-05-07T04:50:01;4.68;;;2.90;;
7338;SDS011;33747;49.524;8.390;2023-05-07T04:52:27;6.90;;;3.72;;
7338;SDS011;33747;49.524;8.390;2023-05-07T04:54:52;5.50;;;3.22;;
7338;SDS011;33747;49.524;8.390;2023-05-07T04:57:17;4.30;;;3.45;;
7338;SDS011;33747;49.524;8.390;2023-05-07T04:59:43;3.67;;;3.13;;
7338;SDS011;33747;49.524;8.390;2023-05-07T05:02:09;5.78;;;3.00;;
7338;SDS011;33747;49.524;8.390;2023-05-07T05:04:35;3.85;;;2.78;;
7338;SDS011;33747;49.524;8.390;2023-05-07T05:07:01;3.40;;;2.90;;
7338;SDS011;33747;49.524;8.390;2023-05-07T05:09:28;3.08;;;2.78;;
7338;SDS011;33747;49.524;8.390;2023-05-07T05:11:53;6.35;;;3.08;;
7338;SDS011;33747;49.524;8.390;2023-05-07T05:14:19;3.75;;;3.17;;
7338;SDS011;33747;49.524;8.390;2023-05-07T05:16:44;6.85;;;3.40;;
7338;SDS011;33747;49.524;8.390;2023-05-07T05:19:09;4.65;;;2.60;;
7338;SDS011;33747;49.524;8.390;2023-05-07T05:21:35;5.55;;;3.17;;
7338;SDS011;33747;49.524;8.390;2023-05-07T05:24:00;4.05;;;2.78;;
7338;SDS011;33747;49.524;8.390;2023-05-07T05:26:26;5.72;;;2.92;;
7338;SDS011;33747;49.524;8.390;2023-05-07T05:28:51;5.50;;;2.88;;
7338;SDS011;33747;49.524;8.390;2023-05-07T05:31:16;7.13;;;3.03;;
7338;SDS011;33747;49.524;8.390;2023-05-07T05:33:42;8.00;;;3.50;;
7338;SDS011;33747;49.524;8.390;2023-05-07T05:36:10;4.60;;;2.88;;
7338;SDS011;33747;49.524;8.390;2023-05-07T05:38:37;6.65;;;2.90;;
7338;SDS011;33747;49.524;8.390;2023-05-07T05:41:03;4.22;;;3.00;;
7338;SDS011;33747;49.524;8.390;2023-05-07T05:43:28;5.13;;;2.67;;
7338;SDS011;33747;49.524;8.390;2023-05-07T05:45:55;5.03;;;3.17;;
7338;SDS011;33747;49.524;8.390;2023-05-07T05:48:20;9.65;;;2.90;;
7338;SDS011;33747;49.524;8.390;2023-05-07T05:50:46;7.57;;;3.20;;
7338;SDS011;33747;49.524;8.390;2023-05-07T05:53:11;6.68;;;2.78;;
7338;SDS011;33747;49.524;8.390;2023-05-07T05:55:37;3.67;;;2.72;;
7338;SDS011;33747;49.524;8.390;2023-05-07T05:58:02;2.70;;;2.45;;
7338;SDS011;33747;49.524;8.390;2023-05-07T06:00:28;3.10;;;2.80;;
7338;SDS011;33747;49.524;8.390;2023-05-07T06:02:53;4.20;;;2.70;;
7338;SDS011;33747;49.524;8.390;2023-05-07T06:05:18;4.45;;;2.80;;
7338;SDS011;33747;49.524;8.390;2023-05-07T06:07:44;5.63;;;2.97;;
7338;SDS011;33747;49.524;8.390;2023-05-07T06:10:09;4.88;;;2.55;;
7338;SDS011;33747;49.524;8.390;2023-05-07T06:12:35;6.75;;;2.72;;
7338;SDS011;33747;49.524;8.390;2023-05-07T06:15:00;3.45;;;2.47;;
7338;SDS011;33747;49.524;8.390;2023-05-07T06:17:26;4.57;;;3.00;;
7338;SDS011;33747;49.524;8.390;2023-05-07T06:19:51;3.47;;;2.67;;
7338;SDS011;33747;49.524;8.390;2023-05-07T06:22:17;3.70;;;2.83;;
7338;SDS011;33747;49.524;8.390;2023-05-07T06:24:42;3.58;;;2.58;;
7338;SDS011;33747;49.524;8.390;2023-05-07T06:27:08;3.90;;;2.92;;
7338;SDS011;33747;49.524;8.390;2023-05-07T06:29:33;4.43;;;2.60;;
7338;SDS011;33747;49.524;8.390;2023-05-07T06:32:08;3.25;;;2.80;;
7338;SDS011;33747;49.524;8.390;2023-05-07T06:34:34;5.38;;;2.50;;
7338;SDS011;33747;49.524;8.390;2023-05-07T06:36:59;3.00;;;2.63;;
7338;SDS011;33747;49.524;8.390;2023-05-07T06:39:24;7.15;;;2.88;;
7338;SDS011;33747;49.524;8.390;2023-05-07T06:41:50;2.83;;;2.63;;
7338;SDS011;33747;49.524;8.390;2023-05-07T06:44:15;6.07;;;2.92;;
7338;SDS011;33747;49.524;8.390;2023-05-07T06:46:41;6.63;;;2.72;;
7338;SDS011;33747;49.524;8.390;2023-05-07T06:49:06;5.22;;;3.00;;
7338;SDS011;33747;49.524;8.390;2023-05-07T06:51:31;5.70;;;2.70;;
7338;SDS011;33747;49.524;8.390;2023-05-07T06:53:57;6.72;;;2.70;;
7338;SDS011;33747;49.524;8.390;2023-05-07T06:56:22;4.63;;;2.40;;
7338;SDS011;33747;49.524;8.390;2023-05-07T06:58:48;2.95;;;2.50;;
7338;SDS011;33747;49.524;8.390;2023-05-07T07:01:13;3.13;;;2.80;;
7338;SDS011;33747;49.524;8.390;2023-05-07T07:03:40;4.28;;;2.80;;
7338;SDS011;33747;49.524;8.390;2023-05-07T07:06:05;4.75;;;3.00;;
7338;SDS011;33747;49.524;8.390;2023-05-07T07:08:30;3.10;;;2.30;;
7338;SDS011;33747;49.524;8.390;2023-05-07T07:10:56;4.82;;;2.70;;
7338;SDS011;33747;49.524;8.390;2023-05-07T07:13:21;3.30;;;2.45;;
7338;SDS011;33747;49.524;8.390;2023-05-07T07:15:46;5.90;;;2.90;;
7338;SDS011;33747;49.524;8.390;2023-05-07T07:18:12;3.50;;;2.65;;
7338;SDS011;33747;49.524;8.390;2023-05-07T07:20:37;3.95;;;2.42;;
7338;SDS011;33747;49.524;8.390;2023-05-07T07:23:03;5.88;;;2.60;;
7338;SDS011;33747;49.524;8.390;2023-05-07T07:25:28;3.20;;;2.60;;
7338;SDS011;33747;49.524;8.390;2023-05-07T07:27:53;7.43;;;2.10;;
7338;SDS011;33747;49.524;8.390;2023-05-07T07:30:19;3.47;;;2.63;;
7338;SDS011;33747;49.524;8.390;2023-05-07T07:32:44;3.33;;;2.20;;
7338;SDS011;33747;49.524;8.390;2023-05-07T07:35:10;2.20;;;2.10;;
7338;SDS011;33747;49.524;8.390;2023-05-07T07:37:36;9.95;;;2.63;;
7338;SDS011;33747;49.524;8.390;2023-05-07T07:40:01;3.65;;;2.03;;
7338;SDS011;33747;49.524;8.390;2023-05-07T07:42:28;4.65;;;2.33;;
7338;SDS011;33747;49.524;8.390;2023-05-07T07:44:54;3.35;;;2.15;;
7338;SDS011;33747;49.524;8.390;2023-05-07T07:47:19;5.95;;;2.58;;
7338;SDS011;33747;49.524;8.390;2023-05-07T07:49:45;3.55;;;2.80;;
7338;SDS011;33747;49.524;8.390;2023-05-07T07:52:10;4.70;;;2.33;;
7338;SDS011;33747;49.524;8.390;2023-05-07T07:54:35;3.35;;;2.40;;
7338;SDS011;33747;49.524;8.390;2023-05-07T07:57:01;4.88;;;1.77;;
7338;SDS011;33747;49.524;8.390;2023-05-07T07:59:26;2.45;;;2.25;;
7338;SDS011;33747;49.524;8.390;2023-05-07T08:01:52;3.08;;;1.83;;
7338;SDS011;33747;49.524;8.390;2023-05-07T08:04:20;3.92;;;2.22;;
7338;SDS011;33747;49.524;8.390;2023-05-07T08:06:46;2.95;;;2.28;;
7338;SDS011;33747;49.524;8.390;2023-05-07T08:09:11;4.70;;;2.83;;
7338;SDS011;33747;49.524;8.390;2023-05-07T08:11:36;5.28;;;2.85;;
7338;SDS011;33747;49.524;8.390;2023-05-07T08:14:02;3.58;;;2.80;;
7338;SDS011;33747;49.524;8.390;2023-05-07T08:16:28;7.50;;;2.80;;
7338;SDS011;33747;49.524;8.390;2023-05-07T08:18:53;5.18;;;2.53;;
7338;SDS011;33747;49.524;8.390;2023-05-07T08:21:19;3.65;;;2.47;;
7338;SDS011;33747;49.524;8.390;2023-05-07T08:23:45;2.80;;;2.30;;
7338;SDS011;33747;49.524;8.390;2023-05-07T08:26:10;2.47;;;1.70;;
7338;SDS011;33747;49.524;8.390;2023-05-07T08:28:36;2.88;;;1.77;;
7338;SDS011;33747;49.524;8.390;2023-05-07T08:31:01;2.35;;;1.73;;
7338;SDS011;33747;49.524;8.390;2023-05-07T08:33:26;2.95;;;2.25;;
7338;SDS011;33747;49.524;8.390;2023-05-07T08:35:52;5.00;;;2.15;;
7338;SDS011;33747;49.524;8.390;2023-05-07T08:38:17;13.50;;;2.55;;
7338;SDS011;33747;49.524;8.390;2023-05-07T08:40:43;5.43;;;2.00;;
7338;SDS011;33747;49.524;8.390;2023-05-07T08:43:08;3.25;;;2.30;;
7338;SDS011;33747;49.524;8.390;2023-05-07T08:45:40;3.33;;;2.55;;
7338;SDS011;33747;49.524;8.390;2023-05-07T08:48:10;5.22;;;2.28;;
7338;SDS011;33747;49.524;8.390;2023-05-07T08:50:40;8.70;;;1.90;;
7338;SDS011;33747;49.524;8.390;2023-05-07T08:53:05;4.68;;;1.80;;
7338;SDS011;33747;49.524;8.390;2023-05-07T08:55:30;8.68;;;2.17;;
7338;SDS011;33747;49.524;8.390;2023-05-07T08:57:56;7.03;;;2.17;;
7338;SDS011;33747;49.524;8.390;2023-05-07T09:00:21;4.00;;;2.28;;
7338;SDS011;33747;49.524;8.390;2023-05-07T09:02:47;3.35;;;1.92;;
7338;SDS011;33747;49.524;8.390;2023-05-07T09:05:12;4.43;;;1.70;;
7338;SDS011;33747;49.524;8.390;2023-05-07T09:07:37;5.32;;;1.95;;
7338;SDS011;33747;49.524;8.390;2023-05-07T09:10:03;4.40;;;1.95;;
7338;SDS011;33747;49.524;8.390;2023-05-07T09:12:29;3.50;;;1.90;;
7338;SDS011;33747;49.524;8.390;2023-05-07T09:14:55;4.75;;;1.92;;
7338;SDS011;33747;49.524;8.390;2023-05-07T09:17:21;3.67;;;2.13;;
7338;SDS011;33747;49.524;8.390;2023-05-07T09:19:46;5.30;;;1.77;;
7338;SDS011;33747;49.524;8.390;2023-05-07T09:22:12;4.20;;;1.75;;
7338;SDS011;33747;49.524;8.390;2023-05-07T09:24:38;3.38;;;1.83;;
7338;SDS011;33747;49.524;8.390;2023-05-07T09:27:03;3.17;;;1.80;;
7338;SDS011;33747;49.524;8.390;2023-05-07T09:29:29;2.03;;;1.80;;
7338;SDS011;33747;49.524;8.390;2023-05-07T09:31:59;2.80;;;1.75;;
7338;SDS011;33747;49.524;8.390;2023-05-07T09:34:25;1.90;;;1.80;;
7338;SDS011;33747;49.524;8.390;2023-05-07T09:36:50;5.78;;;1.70;;
7338;SDS011;33747;49.524;8.390;2023-05-07T09:39:16;2.15;;;1.70;;
7338;SDS011;33747;49.524;8.390;2023-05-07T09:41:45;2.03;;;1.55;;
7338;SDS011;33747;49.524;8.390;2023-05-07T09:44:11;2.53;;;1.80;;
7338;SDS011;33747;49.524;8.390;2023-05-07T09:46:38;4.32;;;2.00;;
7338;SDS011;33747;49.524;8.390;2023-05-07T09:49:03;2.17;;;1.45;;
7338;SDS011;33747;49.524;8.390;2023-05-07T09:51:43;2.10;;;2.00;;
7338;SDS011;33747;49.524;8.390;2023-05-07T09:54:12;3.92;;;1.83;;
7338;SDS011;33747;49.524;8.390;2023-05-07T09:56:38;1.83;;;1.73;;
7338;SDS011;33747;49.524;8.390;2023-05-07T09:59:06;3.47;;;1.88;;
7338;SDS011;33747;49.524;8.390;2023-05-07T10:01:32;3.03;;;1.92;;
7338;SDS011;33747;49.524;8.390;2023-05-07T10:03:58;5.40;;;2.33;;
7338;SDS011;33747;49.524;8.390;2023-05-07T10:06:24;1.55;;;1.40;;
7338;SDS011;33747;49.524;8.390;2023-05-07T10:08:50;3.33;;;1.20;;
7338;SDS011;33747;49.524;8.390;2023-05-07T10:11:16;2.55;;;1.90;;
7338;SDS011;33747;49.524;8.390;2023-05-07T10:13:42;2.78;;;1.58;;
7338;SDS011;33747;49.524;8.390;2023-05-07T10:16:08;12.05;;;2.40;;
7338;SDS011;33747;49.524;8.390;2023-05-07T10:18:33;4.13;;;2.20;;
7338;SDS011;33747;49.524;8.390;2023-05-07T10:21:01;8.95;;;2.67;;
7338;SDS011;33747;49.524;8.390;2023-05-07T10:23:30;5.15;;;2.50;;
7338;SDS011;33747;49.524;8.390;2023-05-07T10:25:56;2.90;;;2.33;;
7338;SDS011;33747;49.524;8.390;2023-05-07T10:28:22;3.15;;;2.30;;
7338;SDS011;33747;49.524;8.390;2023-05-07T10:31:01;2.60;;;2.22;;
7338;SDS011;33747;49.524;8.390;2023-05-07T10:33:47;3.80;;;2.17;;
7338;SDS011;33747;49.524;8.390;2023-05-07T10:36:13;2.45;;;1.60;;
7338;SDS011;33747;49.524;8.390;2023-05-07T10:38:39;6.93;;;1.75;;
7338;SDS011;33747;49.524;8.390;2023-05-07T10:41:05;2.75;;;1.70;;
7338;SDS011;33747;49.524;8.390;2023-05-07T10:43:41;2.17;;;1.98;;
7338;SDS011;33747;49.524;8.390;2023-05-07T10:46:17;2.75;;;2.10;;
7338;SDS011;33747;49.524;8.390;2023-05-07T10:51:31;2.78;;;1.88;;
7338;SDS011;33747;49.524;8.390;2023-05-07T10:56:35;4.68;;;1.80;;
7338;SDS011;33747;49.524;8.390;2023-05-07T10:59:31;1.40;;;1.30;;
7338;SDS011;33747;49.524;8.390;2023-05-07T11:01:57;3.85;;;1.73;;
7338;SDS011;33747;49.524;8.390;2023-05-07T11:04:24;2.33;;;1.88;;
7338;SDS011;33747;49.524;8.390;2023-05-07T11:15:00;2.78;;;1.50;;
7338;SDS011;33747;49.524;8.390;2023-05-07T11:17:32;2.00;;;1.60;;
7338;SDS011;33747;49.524;8.390;2023-05-07T11:19:59;3.38;;;1.48;;
7338;SDS011;33747;49.524;8.390;2023-05-07T11:25:04;1.85;;;1.50;;
7338;SDS011;33747;49.524;8.390;2023-05-07T11:27:30;2.78;;;1.60;;
7338;SDS011;33747;49.524;8.390;2023-05-07T11:29:56;7.53;;;1.80;;
7338;SDS011;33747;49.524;8.390;2023-05-07T11:32:22;1.83;;;1.00;;
7338;SDS011;33747;49.524;8.390;2023-05-07T11:34:51;2.28;;;1.27;;
7338;SDS011;33747;49.524;8.390;2023-05-07T11:37:17;1.92;;;1.20;;
7338;SDS011;33747;49.524;8.390;2023-05-07T11:39:42;1.70;;;1.52;;
7338;SDS011;33747;49.524;8.390;2023-05-07T11:42:24;4.45;;;1.55;;
7338;SDS011;33747;49.524;8.390;2023-05-07T11:44:57;3.00;;;1.30;;
7338;SDS011;33747;49.524;8.390;2023-05-07T11:47:22;2.53;;;1.30;;
7338;SDS011;33747;49.524;8.390;2023-05-07T11:49:51;1.95;;;1.58;;
7338;SDS011;33747;49.524;8.390;2023-05-07T11:52:18;2.58;;;1.40;;
7338;SDS011;33747;49.524;8.390;2023-05-07T11:54:51;3.00;;;1.60;;
7338;SDS011;33747;49.524;8.390;2023-05-07T11:57:18;2.78;;;1.58;;
7338;SDS011;33747;49.524;8.390;2023-05-07T11:59:43;1.48;;;1.20;;
7338;SDS011;33747;49.524;8.390;2023-05-07T12:02:09;4.50;;;1.35;;
7338;SDS011;33747;49.524;8.390;2023-05-07T12:04:35;5.68;;;1.45;;
7338;SDS011;33747;49.524;8.390;2023-05-07T12:07:00;1.90;;;1.20;;
7338;SDS011;33747;49.524;8.390;2023-05-07T12:09:26;1.67;;;1.13;;
7338;SDS011;33747;49.524;8.390;2023-05-07T12:11:51;2.25;;;1.23;;
7338;SDS011;33747;49.524;8.390;2023-05-07T12:14:17;1.05;;;0.88;;
7338;SDS011;33747;49.524;8.390;2023-05-07T12:16:42;3.13;;;1.33;;
7338;SDS011;33747;49.524;8.390;2023-05-07T12:19:08;1.90;;;1.02;;
7338;SDS011;33747;49.524;8.390;2023-05-07T12:21:37;3.28;;;1.10;;
7338;SDS011;33747;49.524;8.390;2023-05-07T12:24:03;1.52;;;1.40;;
7338;SDS011;33747;49.524;8.390;2023-05-07T12:26:28;2.50;;;1.23;;
7338;SDS011;33747;49.524;8.390;2023-05-07T12:28:54;2.55;;;1.48;;
7338;SDS011;33747;49.524;8.390;2023-05-07T12:31:19;3.92;;;1.20;;
7338;SDS011;33747;49.524;8.390;2023-05-07T12:33:45;2.13;;;1.52;;
7338;SDS011;33747;49.524;8.390;2023-05-07T12:36:12;3.72;;;1.23;;
7338;SDS011;33747;49.524;8.390;2023-05-07T12:38:38;2.67;;;1.20;;
7338;SDS011;33747;49.524;8.390;2023-05-07T12:41:06;2.45;;;1.50;;
7338;SDS011;33747;49.524;8.390;2023-05-07T12:43:32;2.55;;;1.17;;
7338;SDS011;33747;49.524;8.390;2023-05-07T12:46:03;4.18;;;1.17;;
7338;SDS011;33747;49.524;8.390;2023-05-07T12:48:30;2.10;;;1.23;;
7338;SDS011;33747;49.524;8.390;2023-05-07T12:50:56;1.70;;;1.20;;
7338;SDS011;33747;49.524;8.390;2023-05-07T12:53:23;2.17;;;1.33;;
7338;SDS011;33747;49.524;8.390;2023-05-07T12:55:53;2.55;;;1.40;;
7338;SDS011;33747;49.524;8.390;2023-05-07T13:00:50;2.58;;;1.35;;
7338;SDS011;33747;49.524;8.390;2023-05-07T13:03:22;1.80;;;1.20;;
7338;SDS011;33747;49.524;8.390;2023-05-07T13:05:49;2.72;;;1.27;;
7338;SDS011;33747;49.524;8.390;2023-05-07T13:08:24;2.75;;;1.20;;
7338;SDS011;33747;49.524;8.390;2023-05-07T13:10:51;1.55;;;1.25;;
7338;SDS011;33747;49.524;8.390;2023-05-07T13:13:17;3.08;;;1.23;;
7338;SDS011;33747;49.524;8.390;2023-05-07T13:15:42;1.83;;;1.38;;
7338;SDS011;33747;49.524;8.390;2023-05-07T13:18:07;1.85;;;1.38;;
7338;SDS011;33747;49.524;8.390;2023-05-07T13:20:35;5.35;;;2.13;;
7338;SDS011;33747;49.524;8.390;2023-05-07T13:23:00;2.03;;;1.65;;
7338;SDS011;33747;49.524;8.390;2023-05-07T13:25:27;1.48;;;1.10;;
7338;SDS011;33747;49.524;8.390;2023-05-07T13:27:52;2.70;;;1.60;;
7338;SDS011;33747;49.524;8.390;2023-05-07T13:30:17;5.50;;;2.00;;
7338;SDS011;33747;49.524;8.390;2023-05-07T13:32:43;2.10;;;1.50;;
7338;SDS011;33747;49.524;8.390;2023-05-07T13:35:08;1.33;;;1.23;;
7338;SDS011;33747;49.524;8.390;2023-05-07T13:37:34;1.48;;;1.30;;
7338;SDS011;33747;49.524;8.390;2023-05-07T13:39:59;2.75;;;1.63;;
7338;SDS011;33747;49.524;8.390;2023-05-07T13:42:25;2.88;;;1.35;;
7338;SDS011;33747;49.524;8.390;2023-05-07T13:44:50;2.72;;;1.42;;
7338;SDS011;33747;49.524;8.390;2023-05-07T13:47:16;3.25;;;1.38;;
7338;SDS011;33747;49.524;8.390;2023-05-07T13:49:41;2.67;;;1.30;;
7338;SDS011;33747;49.524;8.390;2023-05-07T13:52:06;4.63;;;1.60;;
7338;SDS011;33747;49.524;8.390;2023-05-07T13:54:32;1.75;;;1.48;;
7338;SDS011;33747;49.524;8.390;2023-05-07T13:56:57;5.22;;;1.90;;
7338;SDS011;33747;49.524;8.390;2023-05-07T13:59:22;2.40;;;1.55;;
7338;SDS011;33747;49.524;8.390;2023-05-07T14:01:48;3.35;;;2.00;;
7338;SDS011;33747;49.524;8.390;2023-05-07T14:04:14;3.33;;;2.10;;
7338;SDS011;33747;49.524;8.390;2023-05-07T14:06:40;9.27;;;2.30;;
7338;SDS011;33747;49.524;8.390;2023-05-07T14:09:05;9.35;;;3.63;;
7338;SDS011;33747;49.524;8.390;2023-05-07T14:11:30;9.85;;;3.55;;
7338;SDS011;33747;49.524;8.390;2023-05-07T14:13:56;8.13;;;2.70;;
7338;SDS011;33747;49.524;8.390;2023-05-07T14:16:22;9.02;;;2.67;;
7338;SDS011;33747;49.524;8.390;2023-05-07T14:18:47;9.00;;;2.55;;
7338;SDS011;33747;49.524;8.390;2023-05-07T14:21:12;7.05;;;2.42;;
7338;SDS011;33747;49.524;8.390;2023-05-07T14:23:38;6.65;;;2.40;;
7338;SDS011;33747;49.524;8.390;2023-05-07T14:26:04;6.05;;;2.97;;
7338;SDS011;33747;49.524;8.390;2023-05-07T14:28:29;7.75;;;2.95;;
7338;SDS011;33747;49.524;8.390;2023-05-07T14:30:55;6.90;;;2.50;;
7338;SDS011;33747;49.524;8.390;2023-05-07T14:33:20;8.73;;;1.90;;
7338;SDS011;33747;49.524;8.390;2023-05-07T14:35:46;3.25;;;1.90;;
7338;SDS011;33747;49.524;8.390;2023-05-07T14:38:13;6.22;;;2.28;;
7338;SDS011;33747;49.524;8.390;2023-05-07T14:40:39;9.63;;;2.00;;
7338;SDS011;33747;49.524;8.390;2023-05-07T14:43:04;4.53;;;2.35;;
7338;SDS011;33747;49.524;8.390;2023-05-07T14:45:30;7.97;;;2.58;;
7338;SDS011;33747;49.524;8.390;2023-05-07T14:47:55;4.45;;;2.22;;
7338;SDS011;33747;49.524;8.390;2023-05-07T14:50:21;5.40;;;2.80;;
7338;SDS011;33747;49.524;8.390;2023-05-07T14:52:46;8.63;;;2.90;;
7338;SDS011;33747;49.524;8.390;2023-05-07T14:55:11;5.72;;;2.72;;
7338;SDS011;33747;49.524;8.390;2023-05-07T14:57:37;6.70;;;3.03;;
7338;SDS011;33747;49.524;8.390;2023-05-07T15:00:03;5.65;;;2.95;;
7338;SDS011;33747;49.524;8.390;2023-05-07T15:02:29;5.32;;;2.65;;
7338;SDS011;33747;49.524;8.390;2023-05-07T15:04:55;13.52;;;2.90;;
7338;SDS011;33747;49.524;8.390;2023-05-07T15:07:20;5.35;;;3.47;;
7338;SDS011;33747;49.524;8.390;2023-05-07T15:09:45;5.28;;;2.60;;
7338;SDS011;33747;49.524;8.390;2023-05-07T15:12:12;5.25;;;2.55;;